createdAt,value
2022-10-24T00:02:13.760Z,12.48
2022-10-24T00:07:16.058Z,12.51
2022-10-24T00:12:19.486Z,12.56
2022-10-24T00:17:21.521Z,12.62
2022-10-24T00:22:23.288Z,12.71
2022-10-24T00:27:25.484Z,12.64
2022-10-24T00:32:27.352Z,12.60
2022-10-24T00:37:29.145Z,12.61
2022-10-24T00:42:30.988Z,12.80
2022-10-24T00:47:32.854Z,12.97
2022-10-24T00:52:40.221Z,13.02
2022-10-24T00:57:55.096Z,13.04
2022-10-24T01:02:57.474Z,13.05
2022-10-24T01:08:09.977Z,12.84
2022-10-24T01:13:40.075Z,12.76
2022-10-24T01:19:32.904Z,12.68
2022-10-24T01:24:46.491Z,12.76
2022-10-24T01:30:13.241Z,12.79
2022-10-24T01:35:36.162Z,12.82
2022-10-24T01:40:48.798Z,12.81
2022-10-24T01:46:04.251Z,12.83
2022-10-24T01:51:08.310Z,12.76
2022-10-24T01:56:10.349Z,12.73
2022-10-24T02:01:22.312Z,12.66
2022-10-24T02:06:26.717Z,12.61
2022-10-24T02:11:28.609Z,12.52
2022-10-24T02:16:31.181Z,12.52
2022-10-24T02:21:55.780Z,12.45
2022-10-24T02:27:03.730Z,12.43
2022-10-24T02:32:09.514Z,12.39
2022-10-24T02:37:13.743Z,12.25
2022-10-24T02:42:19.581Z,12.08
2022-10-24T02:47:24.620Z,12.01
2022-10-24T02:52:27.148Z,11.99
2022-10-24T02:57:29.134Z,12.01
2022-10-24T03:02:30.922Z,11.94
2022-10-24T03:07:32.752Z,11.90
2022-10-24T03:12:34.591Z,11.88
2022-10-24T03:17:36.370Z,11.86
2022-10-24T03:22:38.209Z,11.90
2022-10-24T03:27:40.034Z,11.85
2022-10-24T03:32:42.010Z,11.82
2022-10-24T03:37:44.078Z,11.85
2022-10-24T03:42:46.176Z,11.65
2022-10-24T03:47:48.296Z,11.57
2022-10-24T03:52:50.145Z,11.57
2022-10-24T03:57:52.332Z,11.66
2022-10-24T04:02:54.323Z,11.63
2022-10-24T04:07:56.322Z,11.59
2022-10-24T04:12:58.151Z,11.52
2022-10-24T04:17:59.981Z,11.50
2022-10-24T04:23:04.401Z,11.48
2022-10-24T04:28:06.876Z,11.43
2022-10-24T04:33:08.701Z,11.19
2022-10-24T04:38:10.515Z,11.04
2022-10-24T04:43:12.354Z,11.13
2022-10-24T04:48:15.254Z,11.23
2022-10-24T04:53:17.055Z,11.19
2022-10-24T04:58:18.913Z,11.05
2022-10-24T05:03:23.383Z,11.06
2022-10-24T05:08:25.237Z,11.02
2022-10-24T05:13:26.984Z,10.96
2022-10-24T05:18:28.887Z,10.93
2022-10-24T05:23:30.764Z,10.87
2022-10-24T05:28:33.467Z,10.87
2022-10-24T05:33:35.495Z,10.87
2022-10-24T05:38:37.323Z,10.80
2022-10-24T05:43:39.135Z,10.74
2022-10-24T05:48:40.924Z,10.67
2022-10-24T05:53:42.817Z,10.67
2022-10-24T05:58:44.663Z,10.60
2022-10-24T06:03:46.860Z,10.62
2022-10-24T06:08:48.731Z,10.62
2022-10-24T06:13:50.548Z,10.68
2022-10-24T06:18:52.432Z,10.81
2022-10-24T06:23:54.623Z,10.89
2022-10-24T06:28:56.481Z,10.93
2022-10-24T06:33:58.411Z,10.95
2022-10-24T06:39:00.320Z,10.98
2022-10-24T06:44:04.332Z,11.13
2022-10-24T06:49:08.012Z,11.27
2022-10-24T06:54:10.059Z,11.42
2022-10-24T06:59:15.756Z,11.59
2022-10-24T07:04:17.714Z,11.67
2022-10-24T07:09:19.620Z,11.57
2022-10-24T07:14:21.445Z,11.69
2022-10-24T07:19:23.245Z,11.90
2022-10-24T07:24:25.143Z,12.04
2022-10-24T07:29:26.984Z,12.18
2022-10-24T07:34:28.970Z,12.31
2022-10-24T07:39:30.800Z,12.40
2022-10-24T07:44:32.654Z,12.44
2022-10-24T07:49:34.860Z,12.48
2022-10-24T07:54:37.577Z,12.64
2022-10-24T07:59:42.987Z,12.73
2022-10-24T08:04:45.085Z,12.81
2022-10-24T08:09:48.224Z,12.96
2022-10-24T08:14:50.054Z,13.20
2022-10-24T08:19:52.273Z,13.34
2022-10-24T08:24:54.212Z,13.54
2022-10-24T08:29:56.183Z,13.93
2022-10-24T08:34:58.433Z,14.08
2022-10-24T08:40:00.373Z,14.63
2022-10-24T08:45:02.665Z,14.89
2022-10-24T08:50:28.422Z,15.23
2022-10-24T08:55:50.963Z,15.30
2022-10-24T09:00:55.884Z,15.43
2022-10-24T09:06:02.864Z,15.49
2022-10-24T09:11:06.640Z,15.68
2022-10-24T09:16:14.790Z,15.74
2022-10-24T09:21:16.948Z,15.88
2022-10-24T09:26:27.780Z,16.01
2022-10-24T09:31:29.847Z,16.05
2022-10-24T09:36:31.787Z,16.30
2022-10-24T09:41:35.056Z,16.60
2022-10-24T09:46:36.936Z,16.70
2022-10-24T09:51:58.968Z,16.74
2022-10-24T09:57:30.793Z,16.63
2022-10-24T10:02:34.830Z,16.72
2022-10-24T10:07:42.583Z,16.84
2022-10-24T10:12:55.042Z,16.86
2022-10-24T10:18:00.306Z,17.01
2022-10-24T10:23:25.894Z,17.25
2022-10-24T10:28:27.807Z,17.84
2022-10-24T10:33:45.657Z,17.93
2022-10-24T10:38:58.174Z,17.89
2022-10-24T10:44:21.096Z,17.93
2022-10-24T10:49:30.855Z,18.07
2022-10-24T10:54:49.096Z,18.03
2022-10-24T11:00:36.057Z,17.76
2022-10-24T11:05:45.300Z,17.64
2022-10-24T11:10:55.275Z,17.63
2022-10-24T11:16:02.296Z,17.68
2022-10-24T11:21:16.295Z,17.72
2022-10-24T11:26:34.987Z,17.92
2022-10-24T11:31:45.166Z,18.15
2022-10-24T11:36:56.130Z,18.03
2022-10-24T11:42:25.838Z,18.50
2022-10-24T11:47:27.865Z,18.82
2022-10-24T11:52:35.669Z,18.99
2022-10-24T11:57:38.695Z,19.04
2022-10-24T12:03:19.237Z,19.04
2022-10-24T12:08:39.878Z,18.87
2022-10-24T12:13:50.047Z,18.97
2022-10-24T12:18:59.160Z,18.84
2022-10-24T12:24:01.804Z,18.64
2022-10-24T12:29:21.198Z,18.61
2022-10-24T12:34:23.306Z,18.39
2022-10-24T12:39:34.446Z,18.11
2022-10-24T12:44:39.723Z,18.07
2022-10-24T12:49:41.578Z,17.83
2022-10-24T12:54:45.736Z,17.66
2022-10-24T12:59:48.705Z,17.54
2022-10-24T13:05:24.148Z,17.61
2022-10-24T13:10:53.812Z,17.42
2022-10-24T13:16:15.964Z,17.43
2022-10-24T13:21:20.416Z,17.67
2022-10-24T13:26:58.401Z,17.72
2022-10-24T13:32:06.418Z,18.09
2022-10-24T13:37:24.593Z,18.37
2022-10-24T13:42:51.346Z,18.51
2022-10-24T13:47:59.984Z,18.56
2022-10-24T13:53:30.560Z,18.52
2022-10-24T13:58:42.087Z,18.55
2022-10-24T14:03:48.339Z,18.56
2022-10-24T14:09:02.788Z,18.46
2022-10-24T14:14:13.837Z,18.49
2022-10-24T14:19:17.774Z,18.37
2022-10-24T14:24:23.144Z,18.14
2022-10-24T14:29:34.355Z,18.19
2022-10-24T14:34:38.858Z,18.07
2022-10-24T14:39:41.362Z,18.04
2022-10-24T14:44:46.454Z,18.03
2022-10-24T14:49:48.867Z,18.12
2022-10-24T14:55:21.465Z,18.14
2022-10-24T15:00:26.603Z,17.99
2022-10-24T15:05:31.449Z,17.90
2022-10-24T15:10:38.858Z,17.88
2022-10-24T15:15:43.556Z,17.82
2022-10-24T15:20:47.554Z,17.71
2022-10-24T15:26:02.845Z,17.61
2022-10-24T15:31:10.364Z,17.57
2022-10-24T15:36:30.650Z,17.32
2022-10-24T15:41:33.948Z,17.30
2022-10-24T15:46:35.809Z,17.26
2022-10-24T15:51:39.202Z,17.24
2022-10-24T15:56:41.421Z,17.17
2022-10-24T16:01:53.615Z,17.16
2022-10-24T16:06:56.701Z,17.07
2022-10-24T16:11:59.543Z,17.14
2022-10-24T16:17:02.081Z,17.11
2022-10-24T16:22:05.123Z,17.02
2022-10-24T16:27:08.743Z,16.97
2022-10-24T16:32:12.345Z,16.92
2022-10-24T16:37:14.856Z,16.80
2022-10-24T16:42:18.543Z,16.60
2022-10-24T16:47:20.953Z,16.20
2022-10-24T16:52:23.883Z,16.20
2022-10-24T16:57:26.374Z,16.09
2022-10-24T17:02:28.625Z,15.97
2022-10-24T17:07:30.566Z,15.92
2022-10-24T17:12:32.716Z,15.98
2022-10-24T17:17:34.974Z,16.02
2022-10-24T17:22:37.472Z,16.10
2022-10-24T17:27:39.645Z,16.02
2022-10-24T17:32:42.015Z,15.93
2022-10-24T17:38:05.413Z,15.94
2022-10-24T17:43:21.358Z,15.91
2022-10-24T17:48:24.545Z,15.97
2022-10-24T17:53:26.814Z,15.99
2022-10-24T17:58:29.392Z,15.84
2022-10-24T18:03:31.835Z,15.69
2022-10-24T18:08:34.065Z,15.65
2022-10-24T18:13:37.845Z,15.64
2022-10-24T18:18:40.780Z,15.61
2022-10-24T18:23:42.944Z,15.53
2022-10-24T18:28:47.176Z,15.53
2022-10-24T18:33:49.737Z,15.49
2022-10-24T18:38:54.916Z,15.37
2022-10-24T18:43:59.766Z,15.25
2022-10-24T18:49:02.086Z,15.18
2022-10-24T18:54:07.013Z,15.03
2022-10-24T18:59:21.054Z,14.90
2022-10-24T19:04:27.034Z,14.88
2022-10-24T19:09:28.995Z,14.81
2022-10-24T19:14:30.934Z,14.78
2022-10-24T19:19:36.695Z,14.85
2022-10-24T19:24:38.542Z,14.81
2022-10-24T19:29:40.275Z,14.88
2022-10-24T19:34:42.261Z,14.88
2022-10-24T19:39:44.137Z,14.90
2022-10-24T19:49:54.912Z,14.92
2022-10-24T19:54:56.792Z,14.86
2022-10-24T19:59:58.686Z,14.81
2022-10-24T20:05:00.485Z,14.80
2022-10-24T20:10:02.273Z,14.69
2022-10-24T20:15:04.358Z,14.69
2022-10-24T20:20:06.662Z,14.65
2022-10-24T20:25:08.522Z,14.55
2022-10-24T20:30:11.095Z,14.47
2022-10-24T20:35:12.853Z,14.35
2022-10-24T20:40:15.261Z,14.39
2022-10-24T20:45:21.937Z,14.29
2022-10-24T20:50:24.854Z,14.17
2022-10-24T20:55:43.001Z,14.05
2022-10-24T21:00:45.799Z,13.97
2022-10-24T21:05:47.636Z,13.93
2022-10-24T21:10:49.486Z,13.86
2022-10-24T21:15:57.357Z,13.79
2022-10-24T21:20:59.150Z,13.68
2022-10-24T21:26:06.202Z,13.67
2022-10-24T21:31:14.101Z,13.59
2022-10-24T21:36:18.812Z,13.54
2022-10-24T21:41:22.052Z,13.47
2022-10-24T21:46:26.464Z,13.44
2022-10-24T21:51:31.011Z,13.45
2022-10-24T21:56:36.914Z,13.50
2022-10-24T22:01:39.559Z,13.47
2022-10-24T22:06:42.082Z,13.47
2022-10-24T22:11:44.911Z,13.49
2022-10-24T22:16:47.438Z,13.45
2022-10-24T22:21:51.022Z,13.44
2022-10-24T22:26:53.056Z,13.48
2022-10-24T22:31:55.491Z,13.44
2022-10-24T22:37:12.872Z,13.42
2022-10-24T22:42:19.163Z,13.44
2022-10-24T22:47:37.011Z,13.44
2022-10-24T22:52:39.249Z,13.40
2022-10-24T22:57:41.374Z,13.40
2022-10-24T23:02:46.015Z,13.40
2022-10-24T23:07:51.505Z,13.39
2022-10-24T23:12:53.701Z,13.39
2022-10-24T23:17:55.731Z,13.43
2022-10-24T23:23:09.555Z,13.50
2022-10-24T23:28:26.983Z,13.51
2022-10-24T23:33:29.647Z,13.47
2022-10-24T23:38:31.681Z,13.51
2022-10-24T23:43:33.659Z,13.51
2022-10-24T23:48:57.079Z,13.50
2022-10-24T23:53:59.206Z,13.48
2022-10-24T23:59:01.020Z,13.41
